createdAt,value
2022-11-22T00:00:25.295Z,42.67
2022-11-22T00:02:27.551Z,42.10
2022-11-22T00:04:29.800Z,44.33
2022-11-22T00:06:31.894Z,41.93
2022-11-22T00:08:33.985Z,40.50
2022-11-22T00:10:36.182Z,44.20
2022-11-22T00:12:39.000Z,47.33
2022-11-22T00:14:41.238Z,38.37
2022-11-22T00:16:43.474Z,49.50
2022-11-22T00:18:45.651Z,37.37
2022-11-22T00:20:47.817Z,41.13
2022-11-22T00:22:49.988Z,46.10
2022-11-22T00:24:52.679Z,40.00
2022-11-22T00:26:54.805Z,43.10
2022-11-22T00:28:56.964Z,36.90
2022-11-22T00:30:59.213Z,40.60
2022-11-22T00:33:01.371Z,43.97
2022-11-22T00:35:03.665Z,37.80
2022-11-22T00:37:06.001Z,38.73
2022-11-22T00:39:09.365Z,41.27
2022-11-22T00:41:11.518Z,40.50
2022-11-22T00:43:13.613Z,40.43
2022-11-22T00:45:15.853Z,31.63
2022-11-22T00:47:18.002Z,46.07
2022-11-22T00:49:20.178Z,44.57
2022-11-22T00:51:22.443Z,36.57
2022-11-22T00:53:24.740Z,40.80
2022-11-22T00:55:26.864Z,31.70
2022-11-22T00:57:29.047Z,37.97
2022-11-22T00:59:31.440Z,33.73
2022-11-22T01:01:33.802Z,35.93
2022-11-22T01:03:35.983Z,35.40
2022-11-22T01:05:38.299Z,40.47
2022-11-22T01:07:40.429Z,36.67
2022-11-22T01:09:42.580Z,45.23
2022-11-22T01:11:44.802Z,45.13
2022-11-22T01:13:46.949Z,41.40
2022-11-22T01:15:49.049Z,44.10
2022-11-22T01:17:51.663Z,37.43
2022-11-22T01:19:53.792Z,43.60
2022-11-22T01:21:55.918Z,38.80
2022-11-22T01:23:58.050Z,39.10
2022-11-22T01:26:00.314Z,34.07
2022-11-22T01:28:02.449Z,35.60
2022-11-22T01:30:05.172Z,37.00
2022-11-22T01:32:07.359Z,44.30
2022-11-22T01:34:09.566Z,36.83
2022-11-22T01:36:11.710Z,39.90
2022-11-22T01:38:13.888Z,36.20
2022-11-22T01:40:16.043Z,42.63
2022-11-22T01:42:18.166Z,41.33
2022-11-22T01:44:29.734Z,37.40
2022-11-22T01:46:37.807Z,32.80
2022-11-22T01:48:46.430Z,39.07
2022-11-22T01:50:52.339Z,39.00
2022-11-22T01:52:55.692Z,34.50
2022-11-22T01:55:01.026Z,38.40
2022-11-22T01:57:10.914Z,34.13
2022-11-22T01:59:17.598Z,36.07
2022-11-22T02:01:19.869Z,32.07
2022-11-22T02:03:22.510Z,33.03
2022-11-22T02:05:27.732Z,33.30
2022-11-22T02:07:35.803Z,33.10
2022-11-22T02:09:39.522Z,38.23
2022-11-22T02:11:47.530Z,34.47
2022-11-22T02:13:51.540Z,34.47
2022-11-22T02:15:53.918Z,36.33
2022-11-22T02:17:59.020Z,42.00
2022-11-22T02:20:01.151Z,34.87
2022-11-22T02:22:23.477Z,36.50
2022-11-22T02:24:32.053Z,38.83
2022-11-22T02:26:34.234Z,36.30
2022-11-22T02:28:38.135Z,34.93
2022-11-22T02:30:41.292Z,36.67
2022-11-22T02:32:43.609Z,36.57
2022-11-22T02:34:49.287Z,39.47
2022-11-22T02:36:53.806Z,38.37
2022-11-22T02:38:56.214Z,38.53
2022-11-22T02:41:09.382Z,41.13
2022-11-22T02:43:14.775Z,44.33
2022-11-22T02:45:16.986Z,35.70
2022-11-22T02:47:19.222Z,36.00
2022-11-22T02:49:23.906Z,38.47
2022-11-22T02:51:26.571Z,42.00
2022-11-22T02:53:30.777Z,45.33
2022-11-22T02:55:33.125Z,43.47
2022-11-22T02:57:35.306Z,38.63
2022-11-22T02:59:37.411Z,37.40
2022-11-22T03:01:40.028Z,39.13
2022-11-22T03:03:42.142Z,43.40
2022-11-22T03:05:44.809Z,40.43
2022-11-22T03:07:46.990Z,37.10
2022-11-22T03:09:49.173Z,39.00
2022-11-22T03:11:51.550Z,38.57
2022-11-22T03:13:53.723Z,40.77
2022-11-22T03:15:55.899Z,40.00
2022-11-22T03:18:03.189Z,42.70
2022-11-22T03:20:06.104Z,44.00
2022-11-22T03:22:08.209Z,42.57
2022-11-22T03:24:11.093Z,47.07
2022-11-22T03:26:13.250Z,43.03
2022-11-22T03:28:15.392Z,39.07
2022-11-22T03:30:17.636Z,34.57
2022-11-22T03:32:19.752Z,50.13
2022-11-22T03:34:21.937Z,41.00
2022-11-22T03:36:24.178Z,40.53
2022-11-22T03:38:26.322Z,48.90
2022-11-22T03:40:28.614Z,43.37
2022-11-22T03:42:31.014Z,40.20
2022-11-22T03:44:33.148Z,42.70
2022-11-22T03:46:35.315Z,44.77
2022-11-22T03:48:37.444Z,44.73
2022-11-22T03:50:39.621Z,41.10
2022-11-22T03:52:41.778Z,36.57
2022-11-22T03:54:43.888Z,47.83
2022-11-22T03:56:46.073Z,43.27
2022-11-22T03:58:48.457Z,39.53
2022-11-22T04:00:50.596Z,50.67
2022-11-22T04:02:52.668Z,44.33
2022-11-22T04:04:54.891Z,45.20
2022-11-22T04:06:57.030Z,49.77
2022-11-22T04:08:59.256Z,41.47
2022-11-22T04:11:01.427Z,49.70
2022-11-22T04:13:03.608Z,43.87
2022-11-22T04:15:09.066Z,38.07
2022-11-22T04:17:14.671Z,47.90
2022-11-22T04:19:16.827Z,41.17
2022-11-22T04:21:34.066Z,48.43
2022-11-22T04:23:36.229Z,39.00
2022-11-22T04:25:43.845Z,44.47
2022-11-22T04:27:46.036Z,39.17
2022-11-22T04:29:48.129Z,38.10
2022-11-22T04:32:09.575Z,42.40
2022-11-22T04:34:11.795Z,43.57
2022-11-22T04:36:13.905Z,43.77
2022-11-22T04:38:16.886Z,36.80
2022-11-22T04:40:19.003Z,34.73
2022-11-22T04:42:39.624Z,44.50
2022-11-22T04:44:42.994Z,40.17
2022-11-22T04:46:45.170Z,41.27
2022-11-22T04:48:47.375Z,41.70
2022-11-22T04:51:08.225Z,42.43
2022-11-22T04:53:10.423Z,45.33
2022-11-22T04:55:12.571Z,41.50
2022-11-22T04:57:14.641Z,40.37
2022-11-22T04:59:16.769Z,46.87
2022-11-22T05:01:19.081Z,41.87
2022-11-22T05:03:21.332Z,43.87
2022-11-22T05:05:24.404Z,43.73
2022-11-22T05:07:28.233Z,41.40
2022-11-22T05:09:30.676Z,41.40
2022-11-22T05:11:33.142Z,45.20
2022-11-22T05:13:40.166Z,42.83
2022-11-22T05:15:42.283Z,39.20
2022-11-22T05:17:44.606Z,37.53
2022-11-22T05:19:49.253Z,40.70
2022-11-22T05:21:51.645Z,50.37
2022-11-22T05:23:56.537Z,43.10
2022-11-22T05:25:59.455Z,39.57
2022-11-22T05:28:01.622Z,37.80
2022-11-22T05:30:05.362Z,37.77
2022-11-22T05:32:07.592Z,39.40
2022-11-22T05:34:09.758Z,41.20
2022-11-22T05:36:12.506Z,41.53
2022-11-22T05:38:14.797Z,41.17
2022-11-22T05:40:17.032Z,40.73
2022-11-22T05:42:19.233Z,36.53
2022-11-22T05:44:22.755Z,36.00
2022-11-22T05:46:27.066Z,38.77
2022-11-22T05:48:29.211Z,35.77
2022-11-22T05:50:31.438Z,38.10
2022-11-22T05:52:34.057Z,34.87
2022-11-22T05:54:36.222Z,39.40
2022-11-22T05:56:38.450Z,35.87
2022-11-22T05:58:41.534Z,36.87
2022-11-22T06:00:43.631Z,48.97
2022-11-22T06:02:45.751Z,37.07
2022-11-22T06:04:47.871Z,37.47
2022-11-22T06:06:50.023Z,33.37
2022-11-22T06:08:52.184Z,34.97
2022-11-22T06:10:54.320Z,38.90
2022-11-22T06:12:56.449Z,32.10
2022-11-22T06:15:01.127Z,41.10
2022-11-22T06:17:03.772Z,39.10
2022-11-22T06:19:05.932Z,36.90
2022-11-22T06:21:11.450Z,43.00
2022-11-22T06:23:13.637Z,35.03
2022-11-22T06:25:15.915Z,38.17
2022-11-22T06:27:18.131Z,37.13
2022-11-22T06:29:20.344Z,35.50
2022-11-22T06:31:27.206Z,34.30
2022-11-22T06:33:29.428Z,38.77
2022-11-22T06:35:31.571Z,25.77
2022-11-22T06:37:33.892Z,35.60
2022-11-22T06:39:36.232Z,34.53
2022-11-22T06:41:38.518Z,27.70
2022-11-22T06:43:47.992Z,28.80
2022-11-22T06:45:56.002Z,31.40
2022-11-22T06:47:59.004Z,45.27
2022-11-22T06:50:01.110Z,40.33
2022-11-22T06:52:03.264Z,34.70
2022-11-22T06:54:05.475Z,36.73
2022-11-22T06:56:11.913Z,35.83
2022-11-22T06:58:14.105Z,44.87
2022-11-22T07:00:16.812Z,33.27
2022-11-22T07:02:18.955Z,32.70
2022-11-22T07:04:21.060Z,32.50
2022-11-22T07:06:23.903Z,33.50
2022-11-22T07:08:25.992Z,38.13
2022-11-22T07:10:28.182Z,35.97
2022-11-22T07:12:30.311Z,39.80
2022-11-22T07:14:32.470Z,29.90
2022-11-22T07:16:35.676Z,28.83
2022-11-22T07:18:37.892Z,31.53
2022-11-22T07:20:40.015Z,34.27
2022-11-22T07:22:42.179Z,31.80
2022-11-22T07:24:44.284Z,30.90
2022-11-22T07:26:46.500Z,36.23
2022-11-22T07:28:49.000Z,32.90
2022-11-22T07:30:51.490Z,36.30
2022-11-22T07:32:53.607Z,38.67
2022-11-22T07:34:55.724Z,36.47
2022-11-22T07:37:01.396Z,34.70
2022-11-22T07:39:05.807Z,33.90
2022-11-22T07:41:08.991Z,31.83
2022-11-22T07:43:11.183Z,33.73
2022-11-22T07:45:13.343Z,36.13
2022-11-22T07:47:19.906Z,35.70
2022-11-22T07:49:24.948Z,36.90
2022-11-22T07:51:27.623Z,34.53
2022-11-22T07:53:30.063Z,34.87
2022-11-22T07:55:32.197Z,27.80
2022-11-22T07:57:34.952Z,29.67
2022-11-22T07:59:37.035Z,33.60
2022-11-22T08:01:39.218Z,31.60
2022-11-22T08:03:42.096Z,31.83
2022-11-22T08:05:44.257Z,34.07
2022-11-22T08:07:50.562Z,36.87
2022-11-22T08:09:52.775Z,34.63
2022-11-22T08:11:54.899Z,29.67
2022-11-22T08:13:57.235Z,32.03
2022-11-22T08:16:12.040Z,30.90
2022-11-22T08:18:14.517Z,33.07
2022-11-22T08:20:16.720Z,25.90
2022-11-22T08:22:19.103Z,31.80
2022-11-22T08:24:21.838Z,28.93
2022-11-22T08:26:23.935Z,32.90
2022-11-22T08:28:26.633Z,24.40
2022-11-22T08:30:28.762Z,27.63
2022-11-22T08:32:30.867Z,27.73
2022-11-22T08:34:33.995Z,29.40
2022-11-22T08:36:36.531Z,28.67
2022-11-22T08:38:38.851Z,27.27
2022-11-22T08:40:42.225Z,28.20
2022-11-22T08:42:44.390Z,28.37
2022-11-22T08:44:46.509Z,25.93
2022-11-22T08:46:48.640Z,26.83
2022-11-22T08:48:52.599Z,28.87
2022-11-22T08:51:00.106Z,25.53
2022-11-22T08:53:02.250Z,23.80
2022-11-22T08:55:04.604Z,24.17
2022-11-22T08:57:06.940Z,24.90
2022-11-22T08:59:09.123Z,23.13
2022-11-22T09:01:13.854Z,21.90
2022-11-22T09:03:16.161Z,24.67
2022-11-22T09:05:18.380Z,24.63
2022-11-22T09:09:42.698Z,24.60
2022-11-22T09:11:44.812Z,24.03
2022-11-22T09:13:47.300Z,32.50
2022-11-22T09:15:49.430Z,23.27
2022-11-22T09:17:51.583Z,26.87
2022-11-22T09:19:53.725Z,23.23
2022-11-22T09:21:55.914Z,25.13
2022-11-22T09:23:58.083Z,32.47
2022-11-22T09:26:04.873Z,26.07
2022-11-22T09:28:07.055Z,26.53
2022-11-22T09:30:09.697Z,27.90
2022-11-22T09:32:11.865Z,27.30
2022-11-22T09:34:14.055Z,27.20
2022-11-22T09:36:20.982Z,24.57
2022-11-22T09:38:23.090Z,23.23
2022-11-22T09:40:25.592Z,20.90
2022-11-22T09:42:33.601Z,21.03
2022-11-22T09:44:41.787Z,26.47
2022-11-22T09:46:54.350Z,25.67
2022-11-22T09:49:21.565Z,26.27
2022-11-22T09:51:27.796Z,23.57
2022-11-22T09:54:05.234Z,21.27
2022-11-22T09:56:16.482Z,21.50
2022-11-22T09:58:27.970Z,21.20
2022-11-22T10:00:30.490Z,22.13
2022-11-22T10:02:58.974Z,26.00
2022-11-22T10:05:01.612Z,23.33
2022-11-22T10:07:13.732Z,23.40
2022-11-22T10:09:31.218Z,21.60
2022-11-22T10:11:36.798Z,25.80
2022-11-22T10:13:48.960Z,26.53
2022-11-22T10:15:58.288Z,23.00
2022-11-22T10:18:11.710Z,24.63
2022-11-22T10:20:16.435Z,25.67
2022-11-22T10:22:19.263Z,22.17
2022-11-22T10:24:21.357Z,21.43
2022-11-22T10:26:36.947Z,25.47
2022-11-22T10:28:55.303Z,27.17
2022-11-22T10:31:17.466Z,24.63
2022-11-22T10:33:33.320Z,25.80
2022-11-22T10:35:50.805Z,22.37
2022-11-22T10:38:22.668Z,23.67
2022-11-22T10:40:30.790Z,28.13
2022-11-22T10:42:57.865Z,23.00
2022-11-22T10:45:26.191Z,22.03
2022-11-22T10:47:45.767Z,25.27
2022-11-22T10:50:20.879Z,22.07
2022-11-22T10:52:44.796Z,25.70
2022-11-22T10:55:09.968Z,25.33
2022-11-22T10:57:25.852Z,24.50
2022-11-22T10:59:52.444Z,25.23
2022-11-22T11:02:35.734Z,22.67
2022-11-22T11:04:39.328Z,23.40
2022-11-22T11:10:09.181Z,29.90
2022-11-22T11:11:40.271Z,28.57
2022-11-22T11:13:45.506Z,28.20
2022-11-22T11:15:55.767Z,20.87
2022-11-22T11:18:01.293Z,26.47
2022-11-22T11:20:11.015Z,23.27
2022-11-22T11:22:42.815Z,24.63
2022-11-22T11:24:44.848Z,25.30
2022-11-22T11:26:56.477Z,23.97
2022-11-22T11:29:16.929Z,30.90
2022-11-22T11:31:19.213Z,24.13
2022-11-22T11:33:26.099Z,27.23
2022-11-22T11:35:29.163Z,27.07
2022-11-22T11:37:36.790Z,23.30
2022-11-22T11:39:44.511Z,27.83
2022-11-22T11:41:47.535Z,26.67
2022-11-22T11:43:51.257Z,23.70
2022-11-22T11:45:53.259Z,24.60
2022-11-22T11:47:55.521Z,23.90
2022-11-22T11:49:57.657Z,26.27
2022-11-22T11:52:00.168Z,35.77
2022-11-22T11:54:04.786Z,29.53
2022-11-22T11:56:49.097Z,30.17
2022-11-22T11:58:53.233Z,23.70
2022-11-22T12:00:55.406Z,25.90
2022-11-22T12:03:04.855Z,22.80
2022-11-22T12:05:07.780Z,25.57
2022-11-22T12:07:17.880Z,28.43
2022-11-22T12:09:31.542Z,23.23
2022-11-22T12:11:40.744Z,29.27
2022-11-22T12:14:18.604Z,28.30
2022-11-22T12:16:24.012Z,27.10
2022-11-22T12:18:47.303Z,23.33
2022-11-22T12:20:58.212Z,24.43
2022-11-22T12:23:09.515Z,24.80
2022-11-22T12:25:32.549Z,25.10
2022-11-22T12:27:35.169Z,25.87
2022-11-22T12:29:38.895Z,25.57
2022-11-22T12:31:59.302Z,24.67
2022-11-22T12:34:07.200Z,26.73
2022-11-22T12:36:21.932Z,23.70
2022-11-22T12:38:30.340Z,24.40
2022-11-22T12:40:43.841Z,23.07
2022-11-22T12:42:52.420Z,20.50
2022-11-22T12:45:02.446Z,21.73
2022-11-22T12:47:14.156Z,20.43
2022-11-22T12:49:34.556Z,25.67
2022-11-22T12:52:04.414Z,18.57
2022-11-22T12:54:12.728Z,16.93
2022-11-22T12:56:34.254Z,15.97
2022-11-22T12:58:41.642Z,21.00
2022-11-22T13:01:14.192Z,17.63
2022-11-22T13:03:21.466Z,22.63
2022-11-22T13:05:27.163Z,20.20
2022-11-22T13:07:59.141Z,18.20
2022-11-22T13:10:20.256Z,21.30
2022-11-22T13:12:31.441Z,16.70
2022-11-22T13:14:40.008Z,19.57
2022-11-22T13:16:42.077Z,19.33
2022-11-22T13:18:52.510Z,23.03
2022-11-22T13:21:03.102Z,19.70
2022-11-22T13:23:23.627Z,23.30
2022-11-22T13:25:40.856Z,18.27
2022-11-22T13:27:45.304Z,27.90
2022-11-22T13:29:47.977Z,24.20
2022-11-22T13:32:11.941Z,19.00
2022-11-22T13:34:25.705Z,19.53
2022-11-22T13:36:30.689Z,19.67
2022-11-22T13:38:32.775Z,16.07
2022-11-22T13:40:39.137Z,18.77
2022-11-22T13:42:41.171Z,18.77
2022-11-22T13:45:22.649Z,17.97
2022-11-22T13:47:24.590Z,18.30
2022-11-22T13:49:37.504Z,21.93
2022-11-22T13:51:54.086Z,23.33
2022-11-22T13:54:34.453Z,24.07
2022-11-22T13:56:36.648Z,21.67
2022-11-22T13:59:05.923Z,28.50
2022-11-22T14:01:29.877Z,22.80
2022-11-22T14:03:41.157Z,20.90
2022-11-22T14:05:47.914Z,24.93
2022-11-22T14:07:51.584Z,26.83
2022-11-22T14:09:55.949Z,24.90
2022-11-22T14:12:34.207Z,23.33
2022-11-22T14:15:13.938Z,26.43
2022-11-22T14:17:50.153Z,20.07
2022-11-22T14:19:52.330Z,22.30
2022-11-22T14:22:00.014Z,19.90
2022-11-22T14:24:28.385Z,20.37
2022-11-22T14:26:33.262Z,21.07
2022-11-22T14:28:38.120Z,20.87
2022-11-22T14:30:51.774Z,21.10
2022-11-22T14:33:05.179Z,23.13
2022-11-22T14:35:18.183Z,20.83
2022-11-22T14:37:20.137Z,22.70
2022-11-22T14:39:44.231Z,21.23
2022-11-22T14:41:46.429Z,21.13
2022-11-22T14:43:49.994Z,23.73
2022-11-22T14:46:37.351Z,22.40
2022-11-22T14:48:43.358Z,20.40
2022-11-22T14:51:08.232Z,18.47
2022-11-22T14:53:35.238Z,24.60
2022-11-22T14:55:38.096Z,22.10
2022-11-22T14:57:40.252Z,20.70
2022-11-22T15:00:04.215Z,24.67
2022-11-22T15:02:38.610Z,20.03
2022-11-22T15:09:20.089Z,16.97
2022-11-22T15:09:20.991Z,20.43
2022-11-22T15:10:31.403Z,21.83
2022-11-22T15:12:44.135Z,19.80
2022-11-22T15:14:58.375Z,18.80
2022-11-22T15:58:31.106Z,30.33
2022-11-22T16:00:33.269Z,41.90
2022-11-22T16:02:40.017Z,29.27
2022-11-22T16:06:08.767Z,34.27
2022-11-22T16:07:43.256Z,35.97
2022-11-22T16:09:50.080Z,36.33
2022-11-22T16:12:01.361Z,37.43
2022-11-22T16:14:03.875Z,37.10
2022-11-22T16:16:11.924Z,36.23
2022-11-22T16:18:16.140Z,35.20
2022-11-22T16:20:27.095Z,37.70
2022-11-22T16:22:31.697Z,39.30
2022-11-22T16:24:33.909Z,34.27
2022-11-22T16:26:36.036Z,39.10
2022-11-22T16:28:38.300Z,40.77
2022-11-22T16:30:44.106Z,40.10
2022-11-22T16:32:48.026Z,38.37
2022-11-22T16:35:03.040Z,38.27
2022-11-22T16:37:36.141Z,30.30
2022-11-22T16:39:40.286Z,36.30
2022-11-22T16:41:42.349Z,38.50
2022-11-22T16:43:44.498Z,35.27
2022-11-22T16:45:46.722Z,42.03
2022-11-22T16:48:03.644Z,37.13
2022-11-22T16:50:13.433Z,38.20
2022-11-22T16:52:17.218Z,38.40
2022-11-22T16:54:20.351Z,37.60
2022-11-22T16:56:25.028Z,34.23
2022-11-22T16:58:28.741Z,35.90
2022-11-22T17:00:30.977Z,40.80
2022-11-22T17:02:33.025Z,38.90
2022-11-22T17:04:40.703Z,38.23
2022-11-22T17:06:43.978Z,40.97
2022-11-22T17:08:49.852Z,40.23
2022-11-22T17:10:52.673Z,42.53
2022-11-22T17:12:54.659Z,44.53
2022-11-22T17:14:56.820Z,42.90
2022-11-22T17:16:58.814Z,42.70
2022-11-22T17:19:00.818Z,51.60
2022-11-22T17:21:04.789Z,47.50
2022-11-22T17:23:11.983Z,41.33
2022-11-22T17:25:13.934Z,46.47
2022-11-22T17:27:15.910Z,47.30
2022-11-22T17:29:48.848Z,39.10
2022-11-22T17:31:40.031Z,37.17
2022-11-22T17:33:42.245Z,46.80
2022-11-22T17:35:44.323Z,41.67
2022-11-22T17:37:46.315Z,47.23
2022-11-22T17:39:51.483Z,41.77
2022-11-22T17:41:53.423Z,51.10
2022-11-22T17:43:55.758Z,44.67
2022-11-22T17:45:59.881Z,43.10
2022-11-22T17:48:01.880Z,56.90
2022-11-22T17:50:04.305Z,50.97
2022-11-22T17:52:06.353Z,50.50
2022-11-22T17:54:08.902Z,50.83
2022-11-22T17:56:11.720Z,52.67
2022-11-22T17:58:14.070Z,44.97
2022-11-22T18:00:16.474Z,45.43
2022-11-22T18:02:18.514Z,47.53
2022-11-22T18:04:20.487Z,49.63
2022-11-22T18:06:22.642Z,49.77
2022-11-22T18:08:24.799Z,44.40
2022-11-22T18:10:26.923Z,42.10
2022-11-22T18:12:29.051Z,35.10
2022-11-22T18:14:31.411Z,52.40
2022-11-22T18:16:33.438Z,47.10
2022-11-22T18:20:59.597Z,47.60
2022-11-22T18:23:01.678Z,54.97
2022-11-22T18:25:05.245Z,50.57
2022-11-22T18:27:07.414Z,51.80
2022-11-22T18:31:50.723Z,50.80
2022-11-22T18:33:54.431Z,44.97
2022-11-22T18:36:36.767Z,46.80
2022-11-22T18:38:29.440Z,45.40
2022-11-22T18:40:31.767Z,45.37
2022-11-22T18:42:35.328Z,35.77
2022-11-22T18:44:37.282Z,39.07
2022-11-22T18:46:40.028Z,44.10
2022-11-22T18:48:42.009Z,42.93
2022-11-22T18:50:44.723Z,43.73
2022-11-22T18:52:46.791Z,35.33
2022-11-22T18:54:49.186Z,47.57
2022-11-22T18:56:51.740Z,44.37
2022-11-22T18:58:53.794Z,42.47
2022-11-22T19:00:55.859Z,44.83
2022-11-22T19:02:59.519Z,41.40
2022-11-22T19:05:02.056Z,45.90
2022-11-22T19:07:04.154Z,46.90
2022-11-22T19:09:06.979Z,53.20
2022-11-22T19:11:09.491Z,48.80
2022-11-22T19:13:11.426Z,45.27
2022-11-22T19:15:13.418Z,43.03
2022-11-22T19:17:18.667Z,40.60
2022-11-22T19:19:24.813Z,44.37
2022-11-22T19:21:28.442Z,49.00
2022-11-22T19:23:31.852Z,47.63
2022-11-22T19:25:37.157Z,56.57
2022-11-22T19:27:39.373Z,56.20
2022-11-22T19:29:41.651Z,62.20
2022-11-22T19:31:44.205Z,52.10
2022-11-22T19:33:46.465Z,45.90
2022-11-22T19:35:58.830Z,53.10
2022-11-22T19:38:01.052Z,44.40
2022-11-22T19:40:03.679Z,50.00
2022-11-22T19:42:07.005Z,42.27
2022-11-22T19:44:09.399Z,45.03
2022-11-22T19:46:12.417Z,48.60
2022-11-22T19:48:16.119Z,41.67
2022-11-22T19:50:18.574Z,44.10
2022-11-22T19:52:20.743Z,45.80
2022-11-22T19:54:22.901Z,46.57
2022-11-22T19:56:30.600Z,41.50
2022-11-22T19:58:33.207Z,42.50
2022-11-22T20:00:35.322Z,35.83
2022-11-22T20:02:37.465Z,43.57
2022-11-22T20:04:39.778Z,46.27
2022-11-22T20:06:43.969Z,40.23
2022-11-22T20:08:49.770Z,45.20
2022-11-22T20:10:51.985Z,38.70
2022-11-22T20:12:54.111Z,33.80
2022-11-22T20:14:56.311Z,36.33
2022-11-22T20:16:58.526Z,42.00
2022-11-22T20:19:02.605Z,40.10
2022-11-22T20:21:06.702Z,54.13
2022-11-22T20:23:08.896Z,38.80
2022-11-22T20:25:11.035Z,41.83
2022-11-22T20:27:14.004Z,39.27
2022-11-22T20:29:17.687Z,34.87
2022-11-22T20:31:20.141Z,34.20
2022-11-22T20:33:22.297Z,40.33
2022-11-22T20:35:24.396Z,38.47
2022-11-22T20:37:26.489Z,48.17
2022-11-22T20:39:28.867Z,39.67
2022-11-22T20:41:31.016Z,41.60
2022-11-22T20:43:34.209Z,37.50
2022-11-22T20:45:36.771Z,38.53
2022-11-22T20:47:39.098Z,38.90
2022-11-22T20:49:45.493Z,40.27
2022-11-22T20:51:47.915Z,32.20
2022-11-22T20:53:50.584Z,39.03
2022-11-22T20:55:52.832Z,40.03
2022-11-22T20:57:54.958Z,35.73
2022-11-22T20:59:57.037Z,33.33
2022-11-22T21:01:59.162Z,38.97
2022-11-22T21:04:01.388Z,31.67
2022-11-22T21:06:04.756Z,33.50
2022-11-22T21:08:06.979Z,37.23
2022-11-22T21:10:10.596Z,42.97
2022-11-22T21:12:15.232Z,41.30
2022-11-22T21:14:17.294Z,45.70
2022-11-22T21:16:23.781Z,44.17
2022-11-22T21:18:30.287Z,38.63
2022-11-22T21:20:33.182Z,34.57
2022-11-22T21:22:35.373Z,35.80
2022-11-22T21:24:37.473Z,36.63
2022-11-22T21:26:39.797Z,37.63
2022-11-22T21:28:41.929Z,38.50
2022-11-22T21:30:44.008Z,34.20
2022-11-22T21:32:46.158Z,38.90
2022-11-22T21:34:48.323Z,36.00
2022-11-22T21:36:50.511Z,40.30
2022-11-22T21:38:52.773Z,40.37
2022-11-22T21:41:10.896Z,42.77
2022-11-22T21:43:19.111Z,40.70
2022-11-22T21:45:21.248Z,41.57
2022-11-22T21:47:23.903Z,44.50
2022-11-22T21:49:26.035Z,47.57
2022-11-22T21:51:28.245Z,42.90
2022-11-22T21:53:30.617Z,45.80
2022-11-22T21:55:32.938Z,46.07
2022-11-22T21:57:35.216Z,52.33
2022-11-22T21:59:37.332Z,46.20
2022-11-22T22:01:39.556Z,48.50
2022-11-22T22:03:41.809Z,39.47
2022-11-22T22:05:52.978Z,46.10
2022-11-22T22:07:55.170Z,38.23
2022-11-22T22:09:57.342Z,41.57
2022-11-22T22:11:59.471Z,36.07
2022-11-22T22:14:01.636Z,36.43
2022-11-22T22:16:06.840Z,41.60
2022-11-22T22:18:09.130Z,37.83
2022-11-22T22:20:11.528Z,40.07
2022-11-22T22:22:13.700Z,31.00
2022-11-22T22:24:15.921Z,38.60
2022-11-22T22:26:18.209Z,41.13
2022-11-22T22:28:20.379Z,37.33
2022-11-22T22:30:23.143Z,32.80
2022-11-22T22:32:26.266Z,34.93
2022-11-22T22:34:28.608Z,31.47
2022-11-22T22:36:30.801Z,32.23
2022-11-22T22:38:33.639Z,36.37
2022-11-22T22:40:35.770Z,38.67
2022-11-22T22:42:37.929Z,31.53
2022-11-22T22:44:40.060Z,39.50
2022-11-22T22:46:42.184Z,39.17
2022-11-22T22:48:44.781Z,34.97
2022-11-22T22:50:46.951Z,38.33
2022-11-22T22:52:49.111Z,33.03
2022-11-22T22:54:51.242Z,33.70
2022-11-22T22:56:53.386Z,32.73
2022-11-22T22:58:56.223Z,48.70
2022-11-22T23:01:19.173Z,35.70
2022-11-22T23:03:21.381Z,33.53
2022-11-22T23:05:23.768Z,34.67
2022-11-22T23:07:25.925Z,27.07
2022-11-22T23:09:28.061Z,34.93
2022-11-22T23:11:49.718Z,35.10
2022-11-22T23:13:51.838Z,32.10
2022-11-22T23:15:58.343Z,51.67
2022-11-22T23:18:00.863Z,34.53
2022-11-22T23:20:03.211Z,41.33
2022-11-22T23:22:05.885Z,35.93
2022-11-22T23:24:08.494Z,41.80
2022-11-22T23:26:12.441Z,37.90
2022-11-22T23:28:14.688Z,39.07
2022-11-22T23:30:16.928Z,43.90
2022-11-22T23:32:19.067Z,32.07
2022-11-22T23:34:21.495Z,30.27
2022-11-22T23:36:23.677Z,37.30
2022-11-22T23:38:25.807Z,30.57
2022-11-22T23:40:27.992Z,36.00
2022-11-22T23:42:30.094Z,29.30
2022-11-22T23:44:32.209Z,30.93
2022-11-22T23:46:34.413Z,31.47
2022-11-22T23:48:36.496Z,26.50
2022-11-22T23:50:38.609Z,28.93
2022-11-22T23:52:40.683Z,23.63
2022-11-22T23:54:42.808Z,23.90
2022-11-22T23:56:44.939Z,28.87
2022-11-22T23:58:47.124Z,34.10
